This is the latest recevied weather packets stored in our database for station/object WL7CLI. If no packets are shown the sender has not sent any weather packets the latest 10 day(s).
| Time | Temp. | Humidity | Pressure | Rain* | Wind** | Luminosity | Snow |
|---|---|---|---|---|---|---|---|
| 1777912104 | 24.44° C | 43% | 1000.8 hPa | 0 mm | - | - | - |
| 1777911498 | 23.33° C | 47% | 1000.1 hPa | 0 mm | - | - | - |
| 1777911374 | 23.33° C | 45% | 1000.1 hPa | 0 mm | - | - | - |
| 1777910304 | 22.22° C | 50% | 1000.8 hPa | 0 mm | - | - | - |
| 1777910300 | 22.22° C | 50% | 1000.1 hPa | 0 mm | - | - | - |
| 1777910175 | 22.22° C | 48% | 1000.1 hPa | 0 mm | - | - | - |
| 1777909098 | 21.11° C | 51% | 1000.2 hPa | 0 mm | - | - | - |
| 1777908974 | 21.11° C | 50% | 1000.2 hPa | 0 mm | - | - | - |
| 1777908505 | 21.11° C | 50% | 1000.9 hPa | 0 mm | - | - | - |
| 1777907899 | 20.56° C | 51% | 1000.5 hPa | 0 mm | - | - | - |
| 1777907773 | 20.56° C | 51% | 1000.5 hPa | 0 mm | - | - | - |
| 1777906704 | 20° C | 50% | 1001.2 hPa | 0 mm | - | - | - |
| 1777906698 | 20° C | 51% | 1000.6 hPa | 0 mm | - | - | - |
| 1777906574 | 20° C | 51% | 1000.6 hPa | 0 mm | - | - | - |
| 1777905500 | 18.89° C | 54% | 1000.8 hPa | 0 mm | - | - | - |
| 1777905374 | 18.89° C | 54% | 1000.8 hPa | 0 mm | - | - | - |
| 1777904904 | 18.33° C | 53% | 1001.5 hPa | 0 mm | - | - | - |
| 1777904299 | 17.78° C | 56% | 1000.9 hPa | 0 mm | - | - | - |
| 1777904175 | 17.22° C | 55% | 1001.1 hPa | 0 mm | - | - | - |
| 1777903104 | 16.67° C | 55% | 1001.6 hPa | 0 mm | - | - | - |
| 1777903099 | 16.67° C | 55% | 1001 hPa | 0 mm | - | - | - |
| 1777902974 | 16.67° C | 54% | 1001 hPa | 0 mm | - | - | - |
| 1777901899 | 16.11° C | 56% | 1001.3 hPa | 0 mm | - | - | - |
| 1777901775 | 16.11° C | 57% | 1001.3 hPa | 0 mm | - | - | - |
| 1777901304 | 15.56° C | 58% | 1001.9 hPa | 0 mm | - | - | - |
* Rain latest hour (hover to see other rain measurements)
** Current wind speed in m/s (hover to see current wind gust speed)